»·PEaware :: N737PD KRKS-KSAA

N737PD :: KRKS-KSAA

FLIGHT INFORMATION

Flight Status: Arrived
Operator: Privately registered:
United States
More flights under this callsign
Pilot: Brandon K. (3556)
Aircraft: PIPER PA-28R-201 ARROW
(P28R)
More flights by this aircraft type
Origin: KRKS Rock Springs-Sweetwater
United States
Destination: KSAA Shively
United States
More flights between these airports :: More routes between these airports
Route: OCS
File this flight plan on PilotEdge
Remarks:
Altitude:
(Current/Filed)
11,500ft
Speed:
(Current/Filed)
140kts
Departed: 12-Nov-17 10:31 AM
Arrived: 12-Nov-17 11:17 AM
Distance/Time
Traveled:
102nm/0:45
Distance/Time
To Go:
Arrived

Flight Plot

Page will automatically refresh every two minutes.

Flight plan parsing failed; only flown route is shown


Map Options




Map Legend


Flown Route
Filed Route
Departure Airport
Arrival Airport
Navaid (VOR, NDB)
Fix

Horizontal Profiles

Position Reports

Time Latitude Longitude Heading Altitude Ground
Speed
12-Nov-17 10:27 41.598304 -109.072615 0 6762ft 0kts
12-Nov-17 10:28 41.598304 -109.072615 13 6762ft 0kts
12-Nov-17 10:29 41.598304 -109.072615 13 6762ft 0kts
12-Nov-17 10:30 41.598304 -109.072615 13 6762ft 0kts
12-Nov-17 10:31 41.598304 -109.072615 13 6762ft 0kts
12-Nov-17 10:32 41.598304 -109.072615 13 6762ft 0kts
12-Nov-17 10:33 41.597444 -109.074618 284 6762ft 16kts
12-Nov-17 10:34 41.598577 -109.080930 282 6762ft 10kts
12-Nov-17 10:35 41.598069 -109.081968 184 6762ft 9kts
12-Nov-17 10:36 41.594730 -109.063248 98 7069ft 86kts
12-Nov-17 10:37 41.591901 -109.031432 96 8126ft 87kts
12-Nov-17 10:38 41.589606 -108.998156 92 9101ft 92kts
12-Nov-17 10:39 41.587861 -108.964034 93 10074ft 93kts
12-Nov-17 10:40 41.585916 -108.929513 93 11004ft 94kts
12-Nov-17 10:41 41.583703 -108.891416 94 11481ft 126kts
12-Nov-17 10:42 41.580648 -108.841218 94 11470ft 139kts
12-Nov-17 10:43 41.577543 -108.789472 94 11470ft 140kts
12-Nov-17 10:44 41.574441 -108.737576 94 11470ft 140kts
12-Nov-17 10:45 41.571332 -108.685916 94 11470ft 140kts
12-Nov-17 10:46 41.568190 -108.634098 94 11470ft 140kts
12-Nov-17 10:47 41.565025 -108.582225 94 11470ft 140kts
12-Nov-17 10:48 41.561847 -108.530494 94 11470ft 140kts
12-Nov-17 10:49 41.558635 -108.478669 94 11470ft 140kts
12-Nov-17 10:50 41.557028 -108.452849 94 11470ft 140kts
12-Nov-17 11:01 41.516335 -107.828524 97 11489ft 155kts
12-Nov-17 11:02 41.512419 -107.771058 97 11489ft 155kts
12-Nov-17 11:03 41.508467 -107.713494 97 11489ft 155kts
12-Nov-17 11:04 41.504508 -107.656191 97 11489ft 155kts
12-Nov-17 11:05 41.500512 -107.598768 97 11489ft 155kts
12-Nov-17 11:06 41.496487 -107.541326 97 11489ft 155kts
12-Nov-17 11:07 41.492411 -107.483758 98 11490ft 155kts
12-Nov-17 11:08 41.488181 -107.426457 99 11473ft 155kts
12-Nov-17 11:09 41.484054 -107.369762 99 11463ft 152kts
12-Nov-17 11:10 41.480178 -107.315973 100 11460ft 151kts
12-Nov-17 11:11 41.476121 -107.260135 100 11460ft 151kts
12-Nov-17 11:12 41.472017 -107.204116 101 11460ft 152kts
12-Nov-17 11:13 41.463037 -107.149404 108 11487ft 153kts
12-Nov-17 11:14 41.452655 -107.094561 108 11047ft 153kts
12-Nov-17 11:15 41.442755 -107.041989 108 10100ft 148kts
12-Nov-17 11:16 41.432874 -106.989332 108 8998ft 150kts
12-Nov-17 11:17 41.423885 -106.937120 105 8486ft 142kts
12-Nov-17 11:18 41.416343 -106.885452 105 8095ft 141kts
12-Nov-17 11:19 41.426248 -106.836435 65 7907ft 128kts
12-Nov-17 11:20 41.438858 -106.796972 65 7901ft 104kts
12-Nov-17 11:21 41.452570 -106.798478 263 7455ft 63kts
12-Nov-17 11:22 41.447256 -106.816385 247 7015ft 34kts
12-Nov-17 11:23 41.444753 -106.820271 68 7015ft 14kts
12-Nov-17 11:24 41.446132 -106.814995 106 7015ft 13kts
12-Nov-17 11:25 41.445033 -106.809134 354 7015ft 5kts
12-Nov-17 11:26 41.445246 -106.809497 273 7015ft 0kts
12-Nov-17 11:27 41.445246 -106.809497 273 7015ft 0kts

Navigation Log

Ident Type
Flight plan parsing failed, navigation log unavailable